createdAt,value
2023-04-23T00:00:19.376Z,17.30
2023-04-23T00:02:51.147Z,18.10
2023-04-23T00:05:20.358Z,18.30
2023-04-23T00:07:49.114Z,17.30
2023-04-23T00:10:17.286Z,17.50
2023-04-23T00:12:46.100Z,16.70
2023-04-23T00:15:15.110Z,16.50
2023-04-23T00:17:43.510Z,16.40
2023-04-23T00:20:11.969Z,16.80
2023-04-23T00:22:41.732Z,16.00
2023-04-23T00:25:10.587Z,16.60
2023-04-23T00:27:38.947Z,15.60
2023-04-23T00:30:09.624Z,15.60
2023-04-23T00:32:38.398Z,16.90
2023-04-23T00:35:07.326Z,16.20
2023-04-23T00:37:35.570Z,16.30
2023-04-23T00:40:04.900Z,17.50
2023-04-23T00:42:33.796Z,18.30
2023-04-23T00:45:02.529Z,18.40
2023-04-23T00:47:31.504Z,17.00
2023-04-23T00:50:01.395Z,16.60
2023-04-23T00:52:30.070Z,14.80
2023-04-23T00:54:59.024Z,16.40
2023-04-23T00:57:27.836Z,18.20
2023-04-23T00:59:58.529Z,18.70
2023-04-23T01:02:28.284Z,12.50
2023-04-23T01:04:56.546Z,20.80
2023-04-23T01:07:26.375Z,22.10
2023-04-23T01:09:54.537Z,22.70
2023-04-23T01:12:23.129Z,22.50
2023-04-23T01:14:51.595Z,20.30
2023-04-23T01:17:19.870Z,19.50
2023-04-23T01:19:48.294Z,21.00
2023-04-23T01:22:17.141Z,26.00
2023-04-23T01:24:45.685Z,31.50
2023-04-23T01:27:13.824Z,33.70
2023-04-23T01:29:42.025Z,33.40
2023-04-23T01:32:10.250Z,38.60
2023-04-23T01:34:40.252Z,39.40
2023-04-23T01:37:09.530Z,37.10
2023-04-23T01:39:37.747Z,38.00
2023-04-23T01:42:07.805Z,35.80
2023-04-23T01:44:36.302Z,36.90
2023-04-23T01:47:06.843Z,40.00
2023-04-23T01:49:35.549Z,38.80
2023-04-23T01:52:04.416Z,33.00
2023-04-23T01:54:32.595Z,32.20
2023-04-23T01:57:01.762Z,35.10
2023-04-23T01:59:30.065Z,37.80
2023-04-23T02:01:58.469Z,40.50
2023-04-23T02:04:26.891Z,41.70
2023-04-23T02:06:56.112Z,38.60
2023-04-23T02:09:24.399Z,34.20
2023-04-23T02:11:52.558Z,31.70
2023-04-23T02:14:21.022Z,33.00
2023-04-23T02:16:49.954Z,29.00
2023-04-23T02:19:18.833Z,33.20
2023-04-23T02:21:47.071Z,28.90
2023-04-23T02:24:15.271Z,22.40
2023-04-23T02:26:44.143Z,16.00
2023-04-23T02:29:12.329Z,20.50
2023-04-23T02:31:40.816Z,21.30
2023-04-23T02:34:12.057Z,20.70
2023-04-23T02:36:40.405Z,25.80
2023-04-23T02:39:08.781Z,27.10
2023-04-23T02:41:38.168Z,32.80
2023-04-23T02:44:08.161Z,27.90
2023-04-23T02:46:37.819Z,25.50
2023-04-23T02:49:07.015Z,23.00
2023-04-23T02:51:35.400Z,24.20
2023-04-23T02:54:04.288Z,24.40
2023-04-23T02:56:32.656Z,20.50
2023-04-23T02:59:01.879Z,17.70
2023-04-23T03:01:30.526Z,16.80
2023-04-23T03:03:59.133Z,19.50
2023-04-23T03:06:27.638Z,15.10
2023-04-23T03:08:56.438Z,13.80
2023-04-23T03:11:24.712Z,12.80
2023-04-23T03:13:53.138Z,10.40
2023-04-23T03:16:21.397Z,12.10
2023-04-23T03:18:50.046Z,10.50
2023-04-23T03:21:18.322Z,10.50
2023-04-23T03:23:46.624Z,9.90
2023-04-23T03:26:14.938Z,10.50
2023-04-23T03:28:43.527Z,11.10
2023-04-23T03:31:12.139Z,12.90
2023-04-23T03:33:40.514Z,12.10
2023-04-23T03:36:08.791Z,13.70
2023-04-23T03:38:37.167Z,14.20
2023-04-23T03:41:06.258Z,13.90
2023-04-23T03:43:34.535Z,13.90
2023-04-23T03:46:17.308Z,11.40
2023-04-23T03:48:45.641Z,12.40
2023-04-23T03:51:19.102Z,11.30
2023-04-23T03:53:49.753Z,9.70
2023-04-23T03:56:36.888Z,10.00
2023-04-23T03:59:13.571Z,8.80
2023-04-23T04:01:42.950Z,9.00
2023-04-23T04:04:11.521Z,9.30
2023-04-23T04:06:40.920Z,8.50
2023-04-23T04:09:09.397Z,10.00
2023-04-23T04:11:37.890Z,10.30
2023-04-23T04:14:06.246Z,9.50
2023-04-23T04:16:34.446Z,7.30
2023-04-23T04:19:03.058Z,7.90
2023-04-23T04:21:32.537Z,6.90
2023-04-23T04:24:04.957Z,7.00
2023-04-23T04:26:34.609Z,8.00
2023-04-23T04:29:02.945Z,6.70
2023-04-23T04:31:32.491Z,8.20
2023-04-23T04:34:01.005Z,7.80
2023-04-23T04:36:30.093Z,8.20
2023-04-23T04:38:58.889Z,8.60
2023-04-23T04:41:27.847Z,9.20
2023-04-23T04:43:56.184Z,9.30
2023-04-23T04:46:29.319Z,8.50
2023-04-23T04:48:57.792Z,8.10
2023-04-23T04:51:27.236Z,8.90
2023-04-23T04:53:55.959Z,7.00
2023-04-23T04:56:25.990Z,6.50
2023-04-23T04:58:54.358Z,6.40
2023-04-23T05:01:25.106Z,6.40
2023-04-23T05:03:53.921Z,7.90
2023-04-23T05:06:22.447Z,8.00
2023-04-23T05:08:52.757Z,6.20
2023-04-23T05:11:21.150Z,7.00
2023-04-23T05:13:49.701Z,6.10
2023-04-23T05:16:18.480Z,5.40
2023-04-23T05:18:46.912Z,5.60
2023-04-23T05:21:15.728Z,5.30
2023-04-23T05:23:44.210Z,5.70
2023-04-23T05:26:12.521Z,5.40
2023-04-23T05:28:43.315Z,6.20
2023-04-23T05:31:12.077Z,5.20
2023-04-23T05:33:49.376Z,5.40
2023-04-23T05:36:18.915Z,6.00
2023-04-23T05:38:47.366Z,4.90
2023-04-23T05:41:16.178Z,5.70
2023-04-23T05:43:46.149Z,4.30
2023-04-23T05:46:15.652Z,4.80
2023-04-23T05:48:44.003Z,4.80
2023-04-23T05:51:13.158Z,5.30
2023-04-23T05:53:48.157Z,5.20
2023-04-23T05:56:38.161Z,5.40
2023-04-23T05:59:06.521Z,5.40
2023-04-23T06:01:36.455Z,5.10
2023-04-23T06:04:05.093Z,4.50
2023-04-23T06:06:34.367Z,5.20
2023-04-23T06:09:02.657Z,4.40
2023-04-23T06:11:32.494Z,5.00
2023-04-23T06:14:01.334Z,4.60
2023-04-23T06:16:30.590Z,5.00
2023-04-23T06:18:59.252Z,4.80
2023-04-23T06:21:28.020Z,5.60
2023-04-23T06:23:57.420Z,4.80
2023-04-23T06:26:26.752Z,7.40
2023-04-23T06:28:56.840Z,5.50
2023-04-23T06:31:31.199Z,5.80
2023-04-23T06:33:59.713Z,6.10
2023-04-23T06:36:32.603Z,4.80
2023-04-23T06:39:01.886Z,5.10
2023-04-23T06:41:30.667Z,5.40
2023-04-23T06:44:10.023Z,5.50
2023-04-23T06:46:43.016Z,5.60
2023-04-23T06:49:11.384Z,5.50
2023-04-23T06:51:40.424Z,5.20
2023-04-23T06:54:09.048Z,5.60
2023-04-23T06:56:37.967Z,5.40
2023-04-23T06:59:10.507Z,5.50
2023-04-23T07:01:46.877Z,4.30
2023-04-23T07:04:16.130Z,4.90
2023-04-23T07:06:44.526Z,5.50
2023-04-23T07:09:13.159Z,5.90
2023-04-23T07:11:41.653Z,4.40
2023-04-23T07:14:10.569Z,5.20
2023-04-23T07:16:40.926Z,6.60
2023-04-23T07:19:10.523Z,4.60
2023-04-23T07:21:44.402Z,5.10
2023-04-23T07:24:17.146Z,5.30
2023-04-23T07:26:49.099Z,4.90
2023-04-23T07:29:18.597Z,6.00
2023-04-23T07:34:20.553Z,5.80
2023-04-23T07:36:49.197Z,7.10
2023-04-23T07:44:08.292Z,6.00
2023-04-23T07:46:37.033Z,6.10
2023-04-23T07:49:05.921Z,6.00
2023-04-23T07:51:36.336Z,4.70
2023-04-23T07:54:04.941Z,5.50
2023-04-23T07:56:38.603Z,4.80
2023-04-23T07:59:07.072Z,4.50
2023-04-23T08:01:36.119Z,5.30
2023-04-23T08:04:04.785Z,6.00
2023-04-23T08:06:36.001Z,6.70
2023-04-23T08:09:07.495Z,8.00
2023-04-23T08:11:36.216Z,9.90
2023-04-23T08:14:06.994Z,9.30
2023-04-23T08:16:38.037Z,8.70
2023-04-23T08:19:07.319Z,9.20
2023-04-23T08:21:37.544Z,7.40
2023-04-23T08:24:08.284Z,9.00
2023-04-23T08:26:36.808Z,8.70
2023-04-23T08:29:06.311Z,6.30
2023-04-23T08:31:34.529Z,4.90
2023-04-23T08:34:03.785Z,5.40
2023-04-23T08:36:32.801Z,6.20
2023-04-23T08:39:02.082Z,5.20
2023-04-23T08:41:39.925Z,5.20
2023-04-23T08:44:17.728Z,4.10
2023-04-23T08:46:46.057Z,4.80
2023-04-23T08:49:17.830Z,4.60
2023-04-23T08:51:55.796Z,5.00
2023-04-23T08:54:28.864Z,5.30
2023-04-23T08:57:01.084Z,4.10
2023-04-23T08:59:34.347Z,5.20
2023-04-23T09:02:10.202Z,5.00
2023-04-23T09:07:11.759Z,3.80
2023-04-23T09:12:10.251Z,3.40
2023-04-23T09:14:38.630Z,3.80
2023-04-23T09:17:07.901Z,4.60
2023-04-23T09:19:37.389Z,3.20
2023-04-23T09:22:05.625Z,2.80
2023-04-23T09:24:34.464Z,2.80
2023-04-23T09:27:04.112Z,2.50
2023-04-23T09:29:32.346Z,2.70
2023-04-23T09:32:07.753Z,2.50
2023-04-23T09:34:40.368Z,3.40
2023-04-23T09:37:10.595Z,3.00
2023-04-23T09:39:40.740Z,2.20
2023-04-23T09:42:11.441Z,2.60
2023-04-23T09:44:40.442Z,3.10
2023-04-23T09:47:14.688Z,2.30
2023-04-23T09:49:48.573Z,3.20
2023-04-23T09:52:17.218Z,3.60
2023-04-23T09:54:46.899Z,3.40
2023-04-23T09:57:15.396Z,3.10
2023-04-23T09:59:47.883Z,2.80
2023-04-23T10:02:19.399Z,3.30
2023-04-23T10:04:52.631Z,2.70
2023-04-23T10:07:35.496Z,2.70
2023-04-23T10:10:08.128Z,2.70
2023-04-23T10:12:53.672Z,2.10
2023-04-23T10:15:33.807Z,2.60
2023-04-23T10:18:02.144Z,2.40
2023-04-23T10:20:31.206Z,3.50
2023-04-23T10:22:59.692Z,2.60
2023-04-23T10:25:27.902Z,2.80
2023-04-23T10:27:56.670Z,2.80
2023-04-23T10:30:24.956Z,2.80
2023-04-23T10:32:53.377Z,2.80
2023-04-23T10:35:21.771Z,2.50
2023-04-23T10:37:51.493Z,2.20
2023-04-23T10:40:22.246Z,2.10
2023-04-23T10:42:50.608Z,2.00
2023-04-23T10:45:24.715Z,1.60
2023-04-23T10:47:57.579Z,1.20
2023-04-23T10:50:27.383Z,1.70
2023-04-23T10:52:57.368Z,1.70
2023-04-23T10:55:27.961Z,1.80
2023-04-23T10:58:04.109Z,2.50
2023-04-23T11:00:42.099Z,3.90
2023-04-23T11:03:38.002Z,5.40
2023-04-23T11:06:37.373Z,3.20
2023-04-23T11:09:48.967Z,1.60
2023-04-23T11:12:20.681Z,1.80
2023-04-23T11:14:52.145Z,2.40
2023-04-23T11:17:32.670Z,2.00
2023-04-23T11:20:05.088Z,2.20
2023-04-23T11:22:37.867Z,2.10
2023-04-23T11:27:43.819Z,1.60
2023-04-23T11:30:21.092Z,1.30
2023-04-23T11:32:51.115Z,2.20
2023-04-23T11:35:21.349Z,1.70
2023-04-23T11:37:49.899Z,1.70
2023-04-23T11:40:20.412Z,2.00
2023-04-23T11:42:51.770Z,2.00
2023-04-23T11:45:24.149Z,2.10
2023-04-23T11:47:56.156Z,2.30
2023-04-23T11:50:27.116Z,1.40
2023-04-23T11:52:55.569Z,1.60
2023-04-23T11:55:24.029Z,1.60
2023-04-23T11:57:52.678Z,1.80
2023-04-23T12:00:23.079Z,2.60
2023-04-23T12:02:58.977Z,2.00
2023-04-23T12:05:29.656Z,2.20
2023-04-23T12:08:08.880Z,2.40
2023-04-23T12:10:49.376Z,2.20
2023-04-23T12:13:19.017Z,2.00
2023-04-23T12:15:48.941Z,2.20
2023-04-23T12:18:17.839Z,2.40
2023-04-23T12:20:46.351Z,2.10
2023-04-23T12:23:14.822Z,1.70
2023-04-23T12:25:46.814Z,2.10
2023-04-23T12:28:15.203Z,2.00
2023-04-23T12:30:44.441Z,2.20
2023-04-23T12:33:12.776Z,2.10
2023-04-23T12:35:49.602Z,4.00
2023-04-23T12:38:26.647Z,13.40
2023-04-23T12:40:58.344Z,2.50
2023-04-23T12:43:26.644Z,8.30
2023-04-23T12:45:56.375Z,2.00
2023-04-23T12:48:24.956Z,2.10
2023-04-23T12:50:55.766Z,2.90
2023-04-23T12:53:24.196Z,2.80
2023-04-23T12:55:52.598Z,3.00
2023-04-23T12:58:20.923Z,3.20
2023-04-23T13:00:58.072Z,3.80
2023-04-23T13:03:28.777Z,2.70
2023-04-23T13:05:57.803Z,3.70
2023-04-23T13:08:26.111Z,3.20
2023-04-23T13:10:54.515Z,2.70
2023-04-23T13:13:24.107Z,3.20
2023-04-23T13:15:52.363Z,3.10
2023-04-23T13:18:24.540Z,3.10
2023-04-23T13:20:52.744Z,3.60
2023-04-23T13:23:23.252Z,2.80
2023-04-23T13:25:51.521Z,3.40
2023-04-23T13:28:21.078Z,5.80
2023-04-23T13:30:49.492Z,10.40
2023-04-23T13:33:18.033Z,11.20
2023-04-23T13:35:46.287Z,8.00
2023-04-23T13:38:14.702Z,7.50
2023-04-23T13:40:43.445Z,4.30
2023-04-23T13:43:11.826Z,3.60
2023-04-23T13:45:40.149Z,3.10
2023-04-23T13:48:08.577Z,3.90
2023-04-23T13:50:36.994Z,5.20
2023-04-23T13:53:05.739Z,5.20
2023-04-23T13:55:34.926Z,7.60
2023-04-23T13:58:07.090Z,49.50
2023-04-23T14:00:38.306Z,6.00
2023-04-23T14:03:06.864Z,4.50
2023-04-23T14:05:35.214Z,3.90
2023-04-23T14:08:03.793Z,3.30
2023-04-23T14:10:33.081Z,3.60
2023-04-23T14:13:03.158Z,2.60
2023-04-23T14:15:31.596Z,3.40
2023-04-23T14:18:00.241Z,2.90
2023-04-23T14:20:28.493Z,3.10
2023-04-23T14:22:58.593Z,3.40
2023-04-23T14:25:40.719Z,3.10
2023-04-23T14:28:30.244Z,3.20
2023-04-23T14:30:59.236Z,2.50
2023-04-23T14:33:27.552Z,3.10
2023-04-23T14:35:55.905Z,3.00
2023-04-23T14:38:23.139Z,2.70
2023-04-23T14:40:50.126Z,2.90
2023-04-23T14:43:17.149Z,3.00
2023-04-23T14:45:44.491Z,2.90
2023-04-23T14:48:11.626Z,3.60
2023-04-23T14:50:38.722Z,3.00
2023-04-23T14:53:07.966Z,3.00
2023-04-23T14:55:34.974Z,2.60
2023-04-23T14:58:02.016Z,2.50
2023-04-23T15:00:29.201Z,2.30
2023-04-23T15:02:56.989Z,2.30
2023-04-23T15:05:24.488Z,2.80
2023-04-23T15:07:53.743Z,2.20
2023-04-23T15:10:23.180Z,2.20
2023-04-23T15:12:55.329Z,2.60
2023-04-23T15:15:41.144Z,3.50
2023-04-23T15:18:13.788Z,2.10
2023-04-23T15:20:41.534Z,2.30
2023-04-23T15:23:09.520Z,2.10
2023-04-23T15:25:37.202Z,2.00
2023-04-23T15:28:04.900Z,1.80
2023-04-23T15:30:31.909Z,2.10
2023-04-23T15:32:59.201Z,2.10
2023-04-23T15:35:26.919Z,2.30
2023-04-23T15:37:54.583Z,2.20
2023-04-23T15:40:21.756Z,2.70
2023-04-23T15:42:50.189Z,3.70
2023-04-23T15:45:17.340Z,4.70
2023-04-23T15:47:44.554Z,5.40
2023-04-23T15:50:11.984Z,5.30
2023-04-23T15:52:39.686Z,5.70
2023-04-23T15:55:08.175Z,8.10
2023-04-23T15:57:35.108Z,11.10
2023-04-23T16:00:02.276Z,7.90
2023-04-23T16:02:40.634Z,8.70
2023-04-23T16:05:08.142Z,7.70
2023-04-23T16:07:35.131Z,8.30
2023-04-23T16:10:02.639Z,8.00
2023-04-23T16:12:29.794Z,8.60
2023-04-23T16:14:56.965Z,10.40
2023-04-23T16:17:25.223Z,9.90
2023-04-23T16:19:56.765Z,8.90
2023-04-23T16:22:26.338Z,8.40
2023-04-23T16:24:54.167Z,8.20
2023-04-23T16:27:21.508Z,9.30
2023-04-23T16:29:48.589Z,7.50
2023-04-23T16:32:15.643Z,6.30
2023-04-23T16:34:43.047Z,5.20
2023-04-23T16:37:16.076Z,5.60
2023-04-23T16:39:44.164Z,4.10
2023-04-23T16:42:11.798Z,3.80
2023-04-23T16:44:39.292Z,3.90
2023-04-23T16:47:06.848Z,4.00
2023-04-23T16:49:34.013Z,7.20
2023-04-23T16:52:02.343Z,14.10
2023-04-23T16:54:30.920Z,23.40
2023-04-23T16:56:58.548Z,21.10
2023-04-23T16:59:25.854Z,15.30
2023-04-23T17:01:53.421Z,16.00
2023-04-23T17:04:22.352Z,18.00
2023-04-23T17:06:49.848Z,20.20
2023-04-23T17:09:17.388Z,19.40
2023-04-23T17:11:44.558Z,22.80
2023-04-23T17:14:12.548Z,32.70
2023-04-23T17:16:39.922Z,21.00
2023-04-23T17:19:07.172Z,20.90
2023-04-23T17:21:34.318Z,20.90
2023-04-23T17:24:01.909Z,18.70
2023-04-23T17:26:31.753Z,17.90
2023-04-23T17:29:00.759Z,19.60
2023-04-23T17:31:28.181Z,16.20
2023-04-23T17:33:56.902Z,12.90
2023-04-23T17:36:26.567Z,10.10
2023-04-23T17:38:55.620Z,10.50
2023-04-23T17:44:20.200Z,10.80
2023-04-23T17:46:48.328Z,11.30
2023-04-23T17:49:28.555Z,12.40
2023-04-23T17:58:04.661Z,12.70
2023-04-23T18:00:41.148Z,13.70
2023-04-23T18:03:10.021Z,14.80
2023-04-23T18:05:40.453Z,13.40
2023-04-23T18:08:27.477Z,13.30
2023-04-23T18:10:55.796Z,14.40
2023-04-23T18:13:23.186Z,14.30
2023-04-23T18:15:50.670Z,15.30
2023-04-23T18:18:24.917Z,17.10
2023-04-23T18:20:53.716Z,18.60
2023-04-23T18:23:23.840Z,21.00
2023-04-23T18:25:52.847Z,25.10
2023-04-23T18:28:20.068Z,28.70
2023-04-23T18:30:47.336Z,27.40
2023-04-23T18:33:43.769Z,28.10
2023-04-23T18:36:22.322Z,27.00
2023-04-23T18:38:50.265Z,25.60
2023-04-23T18:41:18.099Z,23.10
2023-04-23T18:43:45.525Z,23.40
2023-04-23T18:46:12.916Z,23.70
2023-04-23T18:48:55.830Z,20.40
2023-04-23T18:51:33.384Z,22.30
2023-04-23T18:54:02.282Z,25.10
2023-04-23T18:56:29.679Z,24.70
2023-04-23T18:58:56.929Z,25.30
2023-04-23T19:01:28.354Z,26.00
2023-04-23T19:04:01.245Z,28.20
2023-04-23T19:06:28.319Z,34.50
2023-04-23T19:08:56.241Z,36.50
2023-04-23T19:11:23.448Z,43.40
2023-04-23T19:13:50.517Z,41.60
2023-04-23T19:16:20.850Z,41.40
2023-04-23T19:18:48.368Z,42.50
2023-04-23T19:21:16.034Z,41.90
2023-04-23T19:23:43.587Z,43.40
2023-04-23T19:26:10.778Z,42.50
2023-04-23T19:28:38.069Z,40.90
2023-04-23T19:31:05.377Z,34.80
2023-04-23T19:33:32.618Z,37.40
2023-04-23T19:35:59.978Z,37.00
2023-04-23T19:38:27.267Z,35.50
2023-04-23T19:40:55.423Z,36.90
2023-04-23T19:43:23.479Z,34.10
2023-04-23T19:45:50.904Z,32.50
2023-04-23T19:48:21.300Z,36.00
2023-04-23T19:50:49.590Z,44.00
2023-04-23T19:53:16.854Z,41.30
2023-04-23T19:58:43.142Z,47.10
2023-04-23T20:01:10.371Z,42.40
2023-04-23T20:03:39.180Z,42.40
2023-04-23T20:06:06.462Z,39.40
2023-04-23T20:08:42.135Z,38.40
2023-04-23T20:11:10.822Z,40.20
2023-04-23T20:13:37.914Z,39.60
2023-04-23T20:16:04.762Z,35.10
2023-04-23T20:18:35.236Z,36.20
2023-04-23T20:21:02.283Z,33.20
2023-04-23T20:23:29.632Z,31.20
2023-04-23T20:25:56.501Z,30.70
2023-04-23T20:28:23.442Z,31.10
2023-04-23T20:30:51.798Z,29.10
2023-04-23T20:33:19.042Z,30.00
2023-04-23T20:35:45.971Z,29.90
2023-04-23T20:38:18.523Z,29.80
2023-04-23T20:40:47.822Z,29.90
2023-04-23T20:43:14.670Z,30.90
2023-04-23T20:45:42.652Z,28.10
2023-04-23T20:48:09.572Z,28.40
2023-04-23T20:50:37.416Z,28.40
2023-04-23T20:53:04.274Z,28.50
2023-04-23T20:55:31.811Z,26.30
2023-04-23T20:57:59.058Z,29.10
2023-04-23T21:00:27.340Z,27.30
2023-04-23T21:02:54.507Z,27.70
2023-04-23T21:05:21.568Z,27.00
2023-04-23T21:07:50.208Z,26.10
2023-04-23T21:10:17.182Z,26.20
2023-04-23T21:12:44.465Z,25.90
2023-04-23T21:15:12.845Z,28.10
2023-04-23T21:17:40.320Z,26.00
2023-04-23T21:20:09.128Z,26.10
2023-04-23T21:22:36.484Z,27.10
2023-04-23T21:25:04.117Z,33.70
2023-04-23T21:27:31.052Z,30.50
2023-04-23T21:30:01.611Z,28.00
2023-04-23T21:32:29.037Z,30.50
2023-04-23T21:34:55.918Z,30.50
2023-04-23T21:37:22.752Z,29.70
2023-04-23T21:39:49.733Z,27.70
2023-04-23T21:42:16.542Z,28.00
2023-04-23T21:44:43.273Z,29.20
2023-04-23T21:47:10.145Z,27.00
2023-04-23T21:49:37.092Z,24.40
2023-04-23T21:52:03.956Z,26.50
2023-04-23T21:54:31.948Z,26.20
2023-04-23T21:56:58.846Z,23.90
2023-04-23T21:59:25.937Z,25.80
2023-04-23T22:01:52.876Z,24.10
2023-04-23T22:04:21.987Z,25.70
2023-04-23T22:06:50.763Z,23.90
2023-04-23T22:09:18.185Z,24.30
2023-04-23T22:12:00.773Z,24.40
2023-04-23T22:14:29.151Z,23.40
2023-04-23T22:16:58.139Z,25.80
2023-04-23T22:19:25.662Z,39.00
2023-04-23T22:21:53.258Z,38.30
2023-04-23T22:24:20.209Z,22.40
2023-04-23T22:26:47.132Z,24.10
2023-04-23T22:29:13.881Z,28.50
2023-04-23T22:31:40.881Z,26.30
2023-04-23T22:34:07.680Z,26.10
2023-04-23T22:36:35.848Z,30.00
2023-04-23T22:39:04.136Z,29.40
2023-04-23T22:41:33.768Z,30.00
2023-04-23T22:44:00.878Z,28.10
2023-04-23T22:46:28.193Z,28.80
2023-04-23T22:48:54.959Z,26.30
2023-04-23T22:51:21.748Z,27.50
2023-04-23T22:53:48.594Z,25.10
2023-04-23T22:56:15.412Z,23.60
2023-04-23T22:58:42.177Z,24.50
2023-04-23T23:01:09.325Z,23.90
2023-04-23T23:03:36.702Z,23.70
2023-04-23T23:06:04.433Z,23.90
2023-04-23T23:08:31.636Z,23.70
2023-04-23T23:10:58.440Z,22.10
2023-04-23T23:13:25.771Z,20.50
2023-04-23T23:15:52.678Z,22.30
2023-04-23T23:18:19.574Z,19.60
2023-04-23T23:20:46.560Z,20.30
2023-04-23T23:23:13.440Z,21.00
2023-04-23T23:25:40.457Z,20.50
2023-04-23T23:28:07.430Z,20.90
2023-04-23T23:30:34.279Z,21.90
2023-04-23T23:33:01.287Z,21.20
2023-04-23T23:35:28.554Z,24.00
2023-04-23T23:37:56.218Z,23.80
2023-04-23T23:40:23.158Z,22.30
2023-04-23T23:42:50.034Z,21.90
2023-04-23T23:45:16.836Z,20.40
2023-04-23T23:47:43.678Z,20.00
2023-04-23T23:50:10.634Z,19.60
2023-04-23T23:52:37.600Z,18.70
2023-04-23T23:55:05.005Z,19.00
2023-04-23T23:57:32.790Z,18.70
2023-04-23T23:59:59.964Z,18.20
